Time;durP1;ratioP1;P1;durP2;ratioP2;P2;SDS_P1;SDS_P2;PMS_P1;PMS_P2;Temp;Humidity;BMP_temperature;BMP_pressure;BME280_temperature;BME280_humidity;BME280_pressure;Samples;Min_cycle;Max_cycle;Signal;HPM_P1;HPM_P2
2021/08/13 00:01:16;;;;;;;;;;;19.00;99.90;;;;;;5109661;28;19908;-88
2021/08/13 00:03:42;;;;;;;;;;;19.00;99.90;;;;;;5110652;28;19922;-87
2021/08/13 00:06:07;;;;;;;;;;;18.90;99.90;;;;;;5116974;28;19908;-88
2021/08/13 00:08:33;;;;;;;;;;;19.00;99.90;;;;;;5118256;28;19915;-88
2021/08/13 00:10:58;;;;;;;;;;;18.90;99.90;;;;;;5108153;28;20442;-88
2021/08/13 00:13:24;;;;;;;;;;;18.90;99.90;;;;;;5109525;28;19930;-87
2021/08/13 00:15:49;;;;;;;;;;;18.90;99.90;;;;;;5098736;28;19912;-88
2021/08/13 00:18:15;;;;;;;;;;;18.90;99.90;;;;;;5094642;28;20373;-87
2021/08/13 00:20:41;;;;;;;;;;;18.90;99.90;;;;;;5095006;28;19963;-88
2021/08/13 00:23:06;;;;;;;;;;;18.80;99.90;;;;;;5094427;28;20050;-87
2021/08/13 00:25:32;;;;;;;;;;;18.80;99.90;;;;;;5094337;28;19908;-87
2021/08/13 00:27:57;;;;;;;;;;;18.70;99.90;;;;;;5094383;28;19909;-88
2021/08/13 00:30:23;;;;;;;;;;;18.70;99.90;;;;;;5095334;28;19916;-88
2021/08/13 00:32:48;;;;;;;;;;;18.70;99.90;;;;;;5094023;28;19946;-88
2021/08/13 00:35:14;;;;;;;;;;;18.70;99.90;;;;;;5094181;28;19908;-88
2021/08/13 00:37:39;;;;;;;;;;;18.70;99.90;;;;;;5095347;28;19908;-88
2021/08/13 00:40:05;;;;;;;;;;;18.70;99.90;;;;;;5093893;28;19908;-88
2021/08/13 00:42:31;;;;;;;;;;;18.70;99.90;;;;;;5093965;28;20308;-88
2021/08/13 00:44:56;;;;;;;;;;;18.70;99.90;;;;;;5093991;28;19912;-88
2021/08/13 00:47:22;;;;;;;;;;;18.70;99.90;;;;;;5094072;28;19994;-88
2021/08/13 00:49:47;;;;;;;;;;;18.70;99.90;;;;;;5095086;28;20437;-87
2021/08/13 00:52:14;;;;;;;;;;;18.70;99.90;;;;;;5093846;28;19908;-88
2021/08/13 00:54:40;;;;;;;;;;;18.70;99.90;;;;;;5093900;28;19999;-88
2021/08/13 00:57:05;;;;;;;;;;;18.60;99.90;;;;;;5093779;28;19943;-88
2021/08/13 00:59:31;;;;;;;;;;;18.70;99.90;;;;;;5093763;28;19916;-87
2021/08/13 01:01:57;;;;;;;;;;;18.60;99.90;;;;;;5093563;28;20308;-88
2021/08/13 01:04:22;;;;;;;;;;;18.60;99.90;;;;;;5093602;28;20288;-87
2021/08/13 01:06:48;;;;;;;;;;;18.60;99.90;;;;;;5093618;28;19909;-87
2021/08/13 01:09:13;;;;;;;;;;;18.60;99.90;;;;;;5093313;28;19961;-87
2021/08/13 01:11:45;;;;;;;;;;;18.60;99.90;;;;;;5094762;28;19909;-88
2021/08/13 01:14:16;;;;;;;;;;;18.50;99.90;;;;;;5093358;28;19912;-87
2021/08/13 01:16:44;;;;;;;;;;;18.50;99.90;;;;;;5095793;28;19914;-88
2021/08/13 01:19:20;;;;;;;;;;;18.50;99.90;;;;;;5096060;28;19915;-88
2021/08/13 01:21:48;;;;;;;;;;;18.50;99.90;;;;;;5097030;28;19908;-88
2021/08/13 01:24:15;;;;;;;;;;;18.60;99.90;;;;;;5103352;28;19916;-87
2021/08/13 01:26:48;;;;;;;;;;;18.50;99.90;;;;;;5094338;28;20002;-88
2021/08/13 01:29:29;;;;;;;;;;;18.50;99.90;;;;;;5093090;28;19912;-88
2021/08/13 01:32:13;;;;;;;;;;;18.50;99.90;;;;;;5093239;28;20008;-88
2021/08/13 01:34:40;;;;;;;;;;;18.50;99.90;;;;;;5093099;28;20353;-87
2021/08/13 01:37:06;;;;;;;;;;;18.50;99.90;;;;;;5094148;28;19908;-88
2021/08/13 01:39:34;;;;;;;;;;;18.40;99.90;;;;;;5092821;28;19916;-88
2021/08/13 01:41:59;;;;;;;;;;;18.50;99.90;;;;;;5092907;28;20066;-88
2021/08/13 01:44:25;;;;;;;;;;;18.50;99.90;;;;;;5094099;28;20383;-88
2021/08/13 01:46:52;;;;;;;;;;;18.40;99.90;;;;;;5093995;28;19912;-88
2021/08/13 01:49:18;;;;;;;;;;;18.50;99.90;;;;;;5092617;28;20299;-88
2021/08/13 01:51:45;;;;;;;;;;;18.40;99.90;;;;;;5092647;28;19915;-88
2021/08/13 01:54:11;;;;;;;;;;;18.40;99.90;;;;;;5093665;28;19908;-88
2021/08/13 01:56:37;;;;;;;;;;;18.40;99.90;;;;;;5094050;28;19951;-87
2021/08/13 01:59:03;;;;;;;;;;;18.40;99.90;;;;;;5092570;28;19951;-87
2021/08/13 02:01:30;;;;;;;;;;;18.40;99.90;;;;;;5092427;28;19908;-88
2021/08/13 02:03:56;;;;;;;;;;;18.40;99.90;;;;;;5092295;28;19916;-87
2021/08/13 02:06:22;;;;;;;;;;;18.40;99.90;;;;;;5093584;28;19908;-88
2021/08/13 02:08:47;;;;;;;;;;;18.30;99.90;;;;;;5093580;28;19909;-87
2021/08/13 02:11:13;;;;;;;;;;;18.40;99.90;;;;;;5092357;28;19915;-88
2021/08/13 02:13:39;;;;;;;;;;;18.30;99.90;;;;;;5092534;28;20279;-88
2021/08/13 02:16:07;;;;;;;;;;;18.30;99.90;;;;;;5092226;28;19995;-88
2021/08/13 02:18:34;;;;;;;;;;;18.30;99.90;;;;;;5092193;28;19908;-88
2021/08/13 02:21:02;;;;;;;;;;;18.30;99.90;;;;;;5093711;28;19961;-88
2021/08/13 02:23:28;;;;;;;;;;;18.30;99.90;;;;;;5093156;28;19919;-88
2021/08/13 02:25:54;;;;;;;;;;;18.20;99.90;;;;;;5092084;28;19908;-88
2021/08/13 02:28:19;;;;;;;;;;;18.20;99.90;;;;;;5091989;28;19908;-88
2021/08/13 02:30:45;;;;;;;;;;;18.30;99.90;;;;;;5091982;28;19912;-88
2021/08/13 02:33:10;;;;;;;;;;;18.20;99.90;;;;;;5092026;28;19912;-87
2021/08/13 02:35:36;;;;;;;;;;;18.20;99.90;;;;;;5091912;28;19908;-88
2021/08/13 02:38:01;;;;;;;;;;;18.20;99.90;;;;;;5092850;28;20364;-88
2021/08/13 02:40:28;;;;;;;;;;;18.20;99.90;;;;;;5091513;28;19957;-88
2021/08/13 02:43:03;;;;;;;;;;;18.20;99.90;;;;;;5090843;28;20269;-88
2021/08/13 02:45:30;;;;;;;;;;;18.30;99.90;;;;;;5092692;28;20311;-88
2021/08/13 02:47:58;;;;;;;;;;;18.30;99.90;;;;;;5091724;28;19908;-88
2021/08/13 02:50:26;;;;;;;;;;;18.30;99.90;;;;;;5091660;28;19908;-88
2021/08/13 02:52:54;;;;;;;;;;;18.30;99.90;;;;;;5092821;28;19919;-88
2021/08/13 02:55:21;;;;;;;;;;;18.30;99.90;;;;;;5092823;28;20295;-87
2021/08/13 02:57:50;;;;;;;;;;;18.30;99.90;;;;;;5091566;28;19908;-88
2021/08/13 03:00:15;;;;;;;;;;;18.30;99.90;;;;;;5092022;28;20009;-88
2021/08/13 03:02:41;;;;;;;;;;;18.30;99.90;;;;;;5091643;28;20376;-88
2021/08/13 03:05:08;;;;;;;;;;;18.20;99.90;;;;;;5091557;28;19920;-88
2021/08/13 03:07:34;;;;;;;;;;;18.20;99.90;;;;;;5091531;28;19962;-88
2021/08/13 03:10:01;;;;;;;;;;;18.20;99.90;;;;;;5091500;28;20334;-88
2021/08/13 03:12:27;;;;;;;;;;;18.30;99.90;;;;;;5092870;28;19915;-88
2021/08/13 03:14:53;;;;;;;;;;;18.30;99.90;;;;;;5091850;28;19931;-87
2021/08/13 03:17:18;;;;;;;;;;;18.30;99.90;;;;;;5092700;28;20357;-87
2021/08/13 03:19:44;;;;;;;;;;;18.30;99.90;;;;;;5091285;28;20002;-88
2021/08/13 03:22:10;;;;;;;;;;;18.30;99.90;;;;;;5092673;28;19908;-88
2021/08/13 03:24:35;;;;;;;;;;;18.30;99.90;;;;;;5091324;28;20338;-88
2021/08/13 03:27:02;;;;;;;;;;;18.30;99.90;;;;;;5092591;28;19943;-88
2021/08/13 03:29:27;;;;;;;;;;;18.30;99.90;;;;;;5091052;28;19909;-88
2021/08/13 03:31:56;;;;;;;;;;;18.30;99.90;;;;;;5091268;28;19999;-88
2021/08/13 03:34:22;;;;;;;;;;;18.20;99.90;;;;;;5091236;28;19915;-88
2021/08/13 03:36:47;;;;;;;;;;;18.20;99.90;;;;;;5091167;28;19908;-88
2021/08/13 03:39:13;;;;;;;;;;;18.20;99.90;;;;;;5092361;28;20415;-88
2021/08/13 03:41:39;;;;;;;;;;;18.20;99.90;;;;;;5091085;28;20006;-88
2021/08/13 03:44:04;;;;;;;;;;;18.20;99.90;;;;;;5091213;28;19965;-87
2021/08/13 03:46:30;;;;;;;;;;;18.20;99.90;;;;;;5091223;28;19924;-87
2021/08/13 03:48:55;;;;;;;;;;;18.20;99.90;;;;;;5091228;28;19914;-88
2021/08/13 03:51:21;;;;;;;;;;;18.20;99.90;;;;;;5093582;28;19985;-88
2021/08/13 03:53:47;;;;;;;;;;;18.10;99.90;;;;;;5095046;28;19908;-88
2021/08/13 03:56:12;;;;;;;;;;;18.10;99.90;;;;;;5096263;28;19915;-87
2021/08/13 03:58:38;;;;;;;;;;;18.10;99.90;;;;;;5094871;28;19908;-88
2021/08/13 04:01:05;;;;;;;;;;;18.10;99.90;;;;;;5094676;28;19908;-88
2021/08/13 04:03:31;;;;;;;;;;;18.10;99.90;;;;;;5094645;28;20373;-88
2021/08/13 04:05:56;;;;;;;;;;;18.10;99.90;;;;;;5094816;28;19908;-88
2021/08/13 04:08:21;;;;;;;;;;;18.10;99.90;;;;;;5095849;28;19908;-88
2021/08/13 04:10:47;;;;;;;;;;;18.00;99.90;;;;;;5094543;28;20384;-88
2021/08/13 04:13:13;;;;;;;;;;;18.00;99.90;;;;;;5095699;28;19943;-88
2021/08/13 04:15:39;;;;;;;;;;;18.00;99.90;;;;;;5094547;28;19914;-88
2021/08/13 04:18:05;;;;;;;;;;;18.00;99.90;;;;;;5094460;28;20417;-88
2021/08/13 04:20:31;;;;;;;;;;;18.00;99.90;;;;;;5094418;28;20004;-88
2021/08/13 04:22:56;;;;;;;;;;;18.00;99.90;;;;;;5094354;28;19909;-89
2021/08/13 04:25:22;;;;;;;;;;;18.00;99.90;;;;;;5095494;28;19915;-87
2021/08/13 04:27:47;;;;;;;;;;;17.90;99.90;;;;;;5094453;28;19908;-88
2021/08/13 04:30:13;;;;;;;;;;;18.00;99.90;;;;;;5093949;28;19908;-88
2021/08/13 04:32:39;;;;;;;;;;;17.90;99.90;;;;;;5094540;28;19915;-88
2021/08/13 04:35:05;;;;;;;;;;;17.90;99.90;;;;;;5094198;28;19999;-88
2021/08/13 04:37:31;;;;;;;;;;;17.90;99.90;;;;;;5094486;28;20010;-88
2021/08/13 04:39:56;;;;;;;;;;;18.00;99.90;;;;;;5094079;28;20399;-87
2021/08/13 04:42:22;;;;;;;;;;;18.00;99.90;;;;;;5095341;28;20421;-88
2021/08/13 04:44:47;;;;;;;;;;;18.10;99.90;;;;;;5093934;28;19912;-87
2021/08/13 04:47:13;;;;;;;;;;;18.10;99.90;;;;;;5094098;28;19915;-88
2021/08/13 04:49:38;;;;;;;;;;;18.10;99.90;;;;;;5093643;28;19916;-88
2021/08/13 04:52:05;;;;;;;;;;;18.10;99.90;;;;;;5093843;28;20277;-87
2021/08/13 04:54:30;;;;;;;;;;;18.20;99.90;;;;;;5094882;28;19919;-88
2021/08/13 04:56:56;;;;;;;;;;;18.20;99.90;;;;;;5093850;28;19908;-88
2021/08/13 04:59:21;;;;;;;;;;;18.20;99.90;;;;;;5093595;28;19935;-88
2021/08/13 05:01:47;;;;;;;;;;;18.30;99.90;;;;;;5094693;28;19911;-88
2021/08/13 05:04:12;;;;;;;;;;;18.30;99.90;;;;;;5094595;28;19923;-88
2021/08/13 05:06:38;;;;;;;;;;;18.30;99.90;;;;;;5093611;28;20359;-88
2021/08/13 05:09:03;;;;;;;;;;;18.40;99.90;;;;;;5093579;28;20275;-88
2021/08/13 05:11:29;;;;;;;;;;;18.40;99.90;;;;;;5093527;28;20357;-88
2021/08/13 05:13:55;;;;;;;;;;;18.50;99.90;;;;;;5093361;28;20315;-88
2021/08/13 05:16:20;;;;;;;;;;;18.60;99.90;;;;;;5118530;22;19914;-83
2021/08/13 05:18:46;;;;;;;;;;;18.60;99.90;;;;;;5078065;28;19913;-83
2021/08/13 05:21:11;;;;;;;;;;;18.70;99.90;;;;;;5093984;28;19908;-84
2021/08/13 05:23:37;;;;;;;;;;;18.80;99.90;;;;;;5077761;28;19916;-83
2021/08/13 05:26:02;;;;;;;;;;;18.80;99.90;;;;;;5094076;28;19962;-84
2021/08/13 05:28:28;;;;;;;;;;;18.80;99.90;;;;;;5078435;28;19940;-83
2021/08/13 05:30:53;;;;;;;;;;;18.90;99.90;;;;;;5093080;28;19908;-84
2021/08/13 05:33:19;;;;;;;;;;;18.90;99.90;;;;;;5078111;28;19916;-84
2021/08/13 05:35:44;;;;;;;;;;;18.90;99.90;;;;;;5093820;28;20345;-83
2021/08/13 05:38:10;;;;;;;;;;;18.90;99.90;;;;;;5094462;28;19955;-83
2021/08/13 05:40:36;;;;;;;;;;;18.90;99.90;;;;;;5077512;28;19908;-83
2021/08/13 05:43:02;;;;;;;;;;;18.90;99.90;;;;;;5094240;28;20364;-84
2021/08/13 05:45:28;;;;;;;;;;;19.00;99.90;;;;;;5078138;28;19963;-84
2021/08/13 05:47:53;;;;;;;;;;;19.00;99.90;;;;;;5093418;28;20262;-84
2021/08/13 05:50:19;;;;;;;;;;;19.00;99.90;;;;;;5077322;28;19908;-83
2021/08/13 05:52:45;;;;;;;;;;;19.00;99.90;;;;;;5094353;28;20007;-84
2021/08/13 05:55:10;;;;;;;;;;;19.10;99.90;;;;;;5093976;28;19963;-84
2021/08/13 05:57:36;;;;;;;;;;;19.20;99.90;;;;;;5094066;28;19909;-84
2021/08/13 06:00:02;;;;;;;;;;;19.20;99.90;;;;;;5077178;28;19913;-84
2021/08/13 06:02:28;;;;;;;;;;;19.30;99.90;;;;;;5078768;28;19979;-84
2021/08/13 06:04:57;;;;;;;;;;;19.40;99.90;;;;;;5078507;28;19967;-84
2021/08/13 06:07:23;;;;;;;;;;;19.40;99.90;;;;;;5078163;28;19915;-84
2021/08/13 06:09:48;;;;;;;;;;;19.50;99.90;;;;;;5077258;28;19909;-83
2021/08/13 06:12:14;;;;;;;;;;;19.50;99.90;;;;;;5093337;28;20276;-84
2021/08/13 06:14:39;;;;;;;;;;;19.60;99.90;;;;;;5093127;28;19920;-84
2021/08/13 06:17:05;;;;;;;;;;;19.70;99.90;;;;;;5077199;28;19920;-84
2021/08/13 06:19:30;;;;;;;;;;;19.70;99.90;;;;;;5092764;28;19912;-84
2021/08/13 06:21:56;;;;;;;;;;;19.70;99.90;;;;;;5078458;28;19908;-84
2021/08/13 06:24:22;;;;;;;;;;;19.80;99.90;;;;;;5077378;28;20372;-84
2021/08/13 06:26:47;;;;;;;;;;;19.80;99.90;;;;;;5077471;28;20315;-84
2021/08/13 06:29:13;;;;;;;;;;;19.80;99.90;;;;;;5092261;28;20436;-84
2021/08/13 06:31:38;;;;;;;;;;;19.80;99.90;;;;;;5092833;28;20007;-83
2021/08/13 06:34:04;;;;;;;;;;;19.80;99.90;;;;;;5092824;28;19908;-84
2021/08/13 06:36:29;;;;;;;;;;;19.90;99.90;;;;;;5077622;28;19912;-83
2021/08/13 06:38:55;;;;;;;;;;;19.90;99.90;;;;;;5077070;28;19908;-83
2021/08/13 06:41:20;;;;;;;;;;;19.90;99.90;;;;;;5092953;28;20003;-83
2021/08/13 06:43:46;;;;;;;;;;;20.00;99.90;;;;;;5077521;28;19912;-84
2021/08/13 06:46:12;;;;;;;;;;;20.00;99.90;;;;;;5077295;28;20387;-84
2021/08/13 06:48:37;;;;;;;;;;;20.10;99.90;;;;;;5077530;28;19908;-84
2021/08/13 06:51:03;;;;;;;;;;;20.10;99.90;;;;;;5092029;28;19908;-84
2021/08/13 06:53:28;;;;;;;;;;;20.10;99.90;;;;;;5092445;28;19912;-84
2021/08/13 06:55:54;;;;;;;;;;;20.10;99.90;;;;;;5092589;28;19908;-84
2021/08/13 06:58:19;;;;;;;;;;;20.10;99.90;;;;;;5092384;28;19909;-84
2021/08/13 07:00:45;;;;;;;;;;;20.10;99.90;;;;;;5092129;28;19913;-84
2021/08/13 07:03:10;;;;;;;;;;;20.10;99.90;;;;;;5077758;28;19944;-84
2021/08/13 07:05:36;;;;;;;;;;;20.10;99.90;;;;;;5093579;28;19932;-84
2021/08/13 07:08:20;;;;;;;;;;;20.10;99.90;;;;;;5075651;28;19913;-84
2021/08/13 07:10:45;;;;;;;;;;;20.20;99.90;;;;;;5077351;28;19915;-84
2021/08/13 07:13:11;;;;;;;;;;;20.20;99.90;;;;;;5092247;28;20007;-84
2021/08/13 07:15:36;;;;;;;;;;;20.20;99.90;;;;;;5077072;28;19908;-84
2021/08/13 07:18:02;;;;;;;;;;;20.20;99.90;;;;;;5076719;28;20358;-84
2021/08/13 07:20:27;;;;;;;;;;;20.20;99.90;;;;;;5092124;28;19909;-84
2021/08/13 07:22:53;;;;;;;;;;;20.20;99.90;;;;;;5076264;28;19928;-84
2021/08/13 07:25:18;;;;;;;;;;;20.30;99.90;;;;;;5078100;28;19919;-84
2021/08/13 07:27:44;;;;;;;;;;;20.30;99.90;;;;;;5080562;28;19909;-83
2021/08/13 07:30:10;;;;;;;;;;;20.30;99.90;;;;;;5095615;28;19909;-84
2021/08/13 07:32:35;;;;;;;;;;;20.30;99.90;;;;;;5096514;28;19988;-84
2021/08/13 07:35:01;;;;;;;;;;;20.40;99.90;;;;;;5096643;28;19942;-84
2021/08/13 07:37:26;;;;;;;;;;;20.40;99.90;;;;;;5096458;28;19916;-84
2021/08/13 07:39:52;;;;;;;;;;;20.40;99.90;;;;;;5095427;28;20377;-84
2021/08/13 07:42:18;;;;;;;;;;;20.50;99.90;;;;;;5096673;28;19935;-84
2021/08/13 07:44:43;;;;;;;;;;;20.50;99.90;;;;;;5096696;28;20261;-84
2021/08/13 07:47:09;;;;;;;;;;;20.50;99.90;;;;;;5096431;28;19908;-84
2021/08/13 07:49:35;;;;;;;;;;;20.60;99.90;;;;;;5096666;28;20045;-84
2021/08/13 07:52:00;;;;;;;;;;;20.60;99.90;;;;;;5096345;28;19948;-84
2021/08/13 07:54:26;;;;;;;;;;;20.60;99.90;;;;;;5097096;28;19909;-84
2021/08/13 07:56:51;;;;;;;;;;;20.60;99.90;;;;;;5081149;28;19931;-83
2021/08/13 07:59:19;;;;;;;;;;;20.70;99.90;;;;;;5095781;28;20360;-83
2021/08/13 08:01:44;;;;;;;;;;;20.80;99.90;;;;;;5081070;28;19932;-84
2021/08/13 08:04:10;;;;;;;;;;;20.80;99.90;;;;;;5096707;28;19917;-84
2021/08/13 08:06:35;;;;;;;;;;;20.80;99.90;;;;;;5080217;28;19961;-84
2021/08/13 08:09:01;;;;;;;;;;;20.80;99.90;;;;;;5080906;28;19908;-84
2021/08/13 08:11:26;;;;;;;;;;;20.80;99.90;;;;;;5096070;28;19940;-84
2021/08/13 08:13:52;;;;;;;;;;;20.80;99.90;;;;;;5080350;28;20360;-84
2021/08/13 08:16:17;;;;;;;;;;;20.80;99.90;;;;;;5095681;28;19915;-84
2021/08/13 08:18:43;;;;;;;;;;;20.80;99.90;;;;;;5080957;28;19913;-84
2021/08/13 08:21:08;;;;;;;;;;;20.80;99.90;;;;;;5094666;28;19908;-85
2021/08/13 08:23:34;;;;;;;;;;;20.90;99.90;;;;;;5095918;28;19920;-84
2021/08/13 08:25:59;;;;;;;;;;;20.90;99.90;;;;;;5078592;28;20369;-83
2021/08/13 08:28:25;;;;;;;;;;;21.00;99.90;;;;;;5094174;28;19908;-83
2021/08/13 08:30:50;;;;;;;;;;;21.00;99.90;;;;;;5078159;28;20339;-83
2021/08/13 08:33:16;;;;;;;;;;;21.00;99.90;;;;;;5077963;28;19947;-83
2021/08/13 08:35:41;;;;;;;;;;;21.00;99.90;;;;;;5093352;28;19908;-83
2021/08/13 08:38:08;;;;;;;;;;;21.10;99.90;;;;;;5093807;28;19957;-83
2021/08/13 08:40:36;;;;;;;;;;;21.10;99.90;;;;;;5093724;28;19908;-83
2021/08/13 08:43:03;;;;;;;;;;;21.10;99.90;;;;;;5094131;28;19912;-83
2021/08/13 08:45:30;;;;;;;;;;;21.10;99.90;;;;;;5094121;28;19912;-83
2021/08/13 08:47:57;;;;;;;;;;;21.00;99.90;;;;;;5093986;28;19908;-83
2021/08/13 08:50:23;;;;;;;;;;;21.10;99.90;;;;;;5093956;28;19915;-83
2021/08/13 08:52:49;;;;;;;;;;;21.10;99.90;;;;;;5078960;28;19908;-83
2021/08/13 08:55:15;;;;;;;;;;;21.20;99.90;;;;;;5078705;28;20364;-84
2021/08/13 08:57:40;;;;;;;;;;;21.20;99.90;;;;;;5094192;28;19967;-83
2021/08/13 09:00:07;;;;;;;;;;;21.30;99.90;;;;;;5092916;28;19909;-83
2021/08/13 09:02:32;;;;;;;;;;;21.30;99.90;;;;;;5077432;28;19909;-83
2021/08/13 09:04:59;;;;;;;;;;;21.40;99.90;;;;;;5093206;28;19923;-83
2021/08/13 09:07:26;;;;;;;;;;;21.40;99.90;;;;;;5093816;28;20371;-83
2021/08/13 09:09:51;;;;;;;;;;;21.40;99.90;;;;;;5076844;28;19909;-83
2021/08/13 09:12:17;;;;;;;;;;;21.40;99.90;;;;;;5092894;28;19908;-83
2021/08/13 09:14:43;;;;;;;;;;;21.40;99.90;;;;;;5092297;28;19962;-84
2021/08/13 09:17:08;;;;;;;;;;;21.40;99.90;;;;;;5077131;28;19916;-83
2021/08/13 09:19:40;;;;;;;;;;;21.50;99.90;;;;;;5092043;28;20377;-83
2021/08/13 09:22:13;;;;;;;;;;;21.50;99.30;;;;;;5092616;28;19908;-83
2021/08/13 09:24:42;;;;;;;;;;;21.50;99.20;;;;;;5093385;28;19955;-83
2021/08/13 09:27:14;;;;;;;;;;;21.60;99.10;;;;;;5092590;28;19945;-83
2021/08/13 09:29:40;;;;;;;;;;;21.60;99.10;;;;;;5076694;28;19959;-83
2021/08/13 09:32:05;;;;;;;;;;;21.70;98.90;;;;;;5092250;28;19908;-83
2021/08/13 09:34:31;;;;;;;;;;;21.70;98.30;;;;;;5077134;28;19912;-83
2021/08/13 09:36:57;;;;;;;;;;;21.80;98.10;;;;;;5092598;28;19916;-83
2021/08/13 09:39:28;;;;;;;;;;;21.80;98.20;;;;;;5091838;28;19915;-84
2021/08/13 09:41:54;;;;;;;;;;;21.90;98.40;;;;;;5076942;28;19916;-83
2021/08/13 09:44:27;;;;;;;;;;;21.90;96.90;;;;;;5092198;28;19912;-84
2021/08/13 09:46:57;;;;;;;;;;;21.90;97.00;;;;;;5092336;28;19915;-83
2021/08/13 09:49:23;;;;;;;;;;;21.90;96.40;;;;;;5090941;28;19951;-83
2021/08/13 09:51:48;;;;;;;;;;;22.00;96.50;;;;;;5091923;28;19908;-83
2021/08/13 09:54:14;;;;;;;;;;;22.00;96.50;;;;;;5076701;28;19912;-83
2021/08/13 09:56:40;;;;;;;;;;;22.00;96.40;;;;;;5092307;28;19963;-83
2021/08/13 09:59:10;;;;;;;;;;;22.10;96.20;;;;;;5076445;28;20372;-83
2021/08/13 10:01:39;;;;;;;;;;;22.20;95.70;;;;;;5092052;28;19960;-84
2021/08/13 10:04:05;;;;;;;;;;;22.20;95.80;;;;;;5076020;28;20430;-83
2021/08/13 10:06:31;;;;;;;;;;;22.20;95.40;;;;;;5076337;28;19908;-84
2021/08/13 10:08:57;;;;;;;;;;;22.30;95.20;;;;;;5091134;28;19954;-83
2021/08/13 10:11:23;;;;;;;;;;;22.30;94.70;;;;;;5091886;28;19908;-83
2021/08/13 10:13:48;;;;;;;;;;;22.30;94.30;;;;;;5091861;28;19916;-83
2021/08/13 10:16:24;;;;;;;;;;;22.30;94.40;;;;;;5076122;28;19908;-83
2021/08/13 10:18:50;;;;;;;;;;;22.30;94.40;;;;;;5075760;28;19939;-84
2021/08/13 10:21:16;;;;;;;;;;;22.30;94.50;;;;;;5075897;28;19908;-84
2021/08/13 10:23:42;;;;;;;;;;;22.30;94.80;;;;;;5075901;28;19973;-83
2021/08/13 10:26:09;;;;;;;;;;;22.40;94.40;;;;;;5092757;28;19952;-83
2021/08/13 10:28:35;;;;;;;;;;;22.50;94.20;;;;;;5077041;28;20289;-84
2021/08/13 10:31:00;;;;;;;;;;;22.50;93.90;;;;;;5075291;28;19912;-83
2021/08/13 10:33:26;;;;;;;;;;;22.50;94.20;;;;;;5092141;28;19909;-83
2021/08/13 10:35:54;;;;;;;;;;;22.60;94.20;;;;;;5091980;28;19909;-84
2021/08/13 10:38:21;;;;;;;;;;;22.60;94.20;;;;;;5076171;28;19916;-83
2021/08/13 10:40:47;;;;;;;;;;;22.60;94.10;;;;;;5076941;28;19916;-83
2021/08/13 10:43:13;;;;;;;;;;;22.70;94.10;;;;;;5092232;28;19909;-83
2021/08/13 10:45:39;;;;;;;;;;;22.70;94.40;;;;;;5092512;28;19944;-84
2021/08/13 10:48:14;;;;;;;;;;;22.70;94.50;;;;;;5077119;28;19908;-83
2021/08/13 10:50:40;;;;;;;;;;;22.70;94.40;;;;;;5092287;28;19948;-83
2021/08/13 10:53:24;;;;;;;;;;;22.70;94.10;;;;;;5076686;28;20384;-83
2021/08/13 10:55:56;;;;;;;;;;;22.70;94.20;;;;;;5092597;28;19913;-83
2021/08/13 10:58:48;;;;;;;;;;;22.80;94.30;;;;;;5092575;28;19931;-83
2021/08/13 11:01:18;;;;;;;;;;;22.80;93.80;;;;;;5073860;28;20376;-83
2021/08/13 11:04:04;;;;;;;;;;;22.90;93.70;;;;;;5092466;28;19916;-83
2021/08/13 11:06:36;;;;;;;;;;;22.90;93.80;;;;;;5091861;28;19912;-83
2021/08/13 11:09:02;;;;;;;;;;;23.00;94.00;;;;;;5076085;28;19916;-84
2021/08/13 11:11:48;;;;;;;;;;;23.00;93.90;;;;;;5076473;28;19909;-83
2021/08/13 11:14:23;;;;;;;;;;;23.00;94.10;;;;;;5091862;28;20007;-83
2021/08/13 11:16:50;;;;;;;;;;;23.10;93.70;;;;;;5112420;22;19918;-87
2021/08/13 11:19:15;;;;;;;;;;;23.10;93.70;;;;;;5051680;28;19917;-85
2021/08/13 11:21:49;;;;;;;;;;;23.20;93.70;;;;;;5052633;28;19980;-85
2021/08/13 11:24:18;;;;;;;;;;;23.20;93.60;;;;;;5035884;28;19952;-85
2021/08/13 11:26:47;;;;;;;;;;;23.30;93.90;;;;;;5035396;28;19912;-85
2021/08/13 11:29:34;;;;;;;;;;;23.40;93.40;;;;;;5034928;28;19913;-85
2021/08/13 11:32:02;;;;;;;;;;;23.50;93.10;;;;;;5035127;28;19913;-85
2021/08/13 11:34:47;;;;;;;;;;;23.50;92.60;;;;;;5053406;28;19913;-85
2021/08/13 11:37:28;;;;;;;;;;;23.50;92.30;;;;;;5035425;28;19909;-85
2021/08/13 11:39:54;;;;;;;;;;;23.50;92.50;;;;;;5034742;28;19962;-85
2021/08/13 11:42:21;;;;;;;;;;;23.40;92.50;;;;;;5035035;28;19909;-85
2021/08/13 11:44:50;;;;;;;;;;;23.40;92.00;;;;;;5035113;28;20007;-87
2021/08/13 11:47:17;;;;;;;;;;;23.30;92.30;;;;;;5035804;28;20276;-85
2021/08/13 11:49:43;;;;;;;;;;;23.30;92.80;;;;;;5035089;28;20078;-85
2021/08/13 11:52:09;;;;;;;;;;;23.40;92.90;;;;;;5035338;28;20357;-85
2021/08/13 11:54:36;;;;;;;;;;;23.50;92.90;;;;;;5035429;28;19924;-85
2021/08/13 11:57:18;;;;;;;;;;;23.60;92.60;;;;;;5052853;28;20115;-85
2021/08/13 11:59:44;;;;;;;;;;;23.70;92.90;;;;;;5035174;28;19909;-85
2021/08/13 12:02:09;;;;;;;;;;;23.80;92.60;;;;;;5034822;28;19916;-85
2021/08/13 12:04:35;;;;;;;;;;;23.90;91.90;;;;;;5036041;28;19908;-85
2021/08/13 12:07:00;;;;;;;;;;;23.90;91.40;;;;;;5053435;28;20266;-86
2021/08/13 12:09:39;;;;;;;;;;;23.90;91.40;;;;;;5035093;28;19966;-86
2021/08/13 12:12:09;;;;;;;;;;;23.90;91.40;;;;;;5037686;28;19951;-85
2021/08/13 12:14:35;;;;;;;;;;;23.90;91.70;;;;;;5057865;28;19912;-85
2021/08/13 12:17:01;;;;;;;;;;;23.90;91.80;;;;;;5039135;28;20285;-85
2021/08/13 12:19:27;;;;;;;;;;;23.90;92.10;;;;;;5057166;28;19916;-85
2021/08/13 12:21:57;;;;;;;;;;;24.00;92.20;;;;;;5059102;28;19909;-84
2021/08/13 12:24:32;;;;;;;;;;;24.10;92.10;;;;;;5041960;28;19912;-85
2021/08/13 12:26:59;;;;;;;;;;;24.10;91.90;;;;;;5041586;28;20004;-85
2021/08/13 12:29:25;;;;;;;;;;;24.10;91.70;;;;;;5038172;28;19909;-85
2021/08/13 12:31:52;;;;;;;;;;;24.00;91.20;;;;;;5056400;28;20303;-85
2021/08/13 12:34:21;;;;;;;;;;;24.10;91.50;;;;;;5038572;28;19962;-85
2021/08/13 12:36:58;;;;;;;;;;;24.10;91.50;;;;;;5056468;28;19909;-85
2021/08/13 12:39:24;;;;;;;;;;;24.10;91.50;;;;;;5037327;28;19916;-85
2021/08/13 12:41:49;;;;;;;;;;;24.00;91.90;;;;;;5055757;28;19909;-85
2021/08/13 12:44:15;;;;;;;;;;;24.00;92.30;;;;;;5055936;28;20365;-87
2021/08/13 12:46:40;;;;;;;;;;;23.90;92.30;;;;;;5038207;28;20015;-87
2021/08/13 12:49:06;;;;;;;;;;;24.00;92.40;;;;;;5037177;28;19947;-87
2021/08/13 12:51:32;;;;;;;;;;;24.00;92.60;;;;;;5037745;28;20448;-87
2021/08/13 12:53:58;;;;;;;;;;;24.00;92.30;;;;;;5037847;28;19951;-87
2021/08/13 12:56:23;;;;;;;;;;;24.10;92.10;;;;;;5055458;28;19908;-88
2021/08/13 12:58:49;;;;;;;;;;;24.20;91.50;;;;;;5037520;28;19908;-87
2021/08/13 13:01:28;;;;;;;;;;;24.20;91.20;;;;;;5037551;28;19909;-87
2021/08/13 13:04:10;;;;;;;;;;;24.30;90.80;;;;;;5038118;28;19916;-87
2021/08/13 13:06:36;;;;;;;;;;;24.30;90.70;;;;;;5037823;28;19909;-87
2021/08/13 13:09:02;;;;;;;;;;;24.30;90.60;;;;;;5037272;28;19913;-87
2021/08/13 13:11:28;;;;;;;;;;;24.30;90.50;;;;;;5055510;28;20007;-88
2021/08/13 13:13:55;;;;;;;;;;;24.30;90.50;;;;;;5037403;28;19920;-87
2021/08/13 13:16:21;;;;;;;;;;;24.30;90.40;;;;;;5037553;28;19952;-87
2021/08/13 13:18:46;;;;;;;;;;;24.30;90.20;;;;;;5037457;28;19917;-87
2021/08/13 13:21:22;;;;;;;;;;;24.40;87.60;;;;;;5037126;28;19913;-87
2021/08/13 13:23:48;;;;;;;;;;;24.40;88.30;;;;;;5037365;28;20415;-87
2021/08/13 13:26:13;;;;;;;;;;;24.30;87.70;;;;;;5037757;28;19909;-87
2021/08/13 13:28:39;;;;;;;;;;;24.30;86.40;;;;;;5055699;28;19932;-87
2021/08/13 13:31:10;;;;;;;;;;;24.30;85.20;;;;;;5036922;28;19940;-87
2021/08/13 13:33:36;;;;;;;;;;;24.30;83.40;;;;;;5037381;28;19940;-87
2021/08/13 13:36:03;;;;;;;;;;;24.30;80.60;;;;;;5055279;28;19913;-87
2021/08/13 13:38:29;;;;;;;;;;;24.30;81.20;;;;;;5055609;28;20005;-87
2021/08/13 13:40:55;;;;;;;;;;;24.30;81.20;;;;;;5036777;28;19916;-87
2021/08/13 13:43:21;;;;;;;;;;;24.30;82.40;;;;;;5037302;28;19924;-87
2021/08/13 13:45:46;;;;;;;;;;;24.40;82.00;;;;;;5037315;28;19935;-85
2021/08/13 13:48:12;;;;;;;;;;;24.40;81.80;;;;;;5037188;28;19958;-87
2021/08/13 13:50:38;;;;;;;;;;;24.40;81.20;;;;;;5054369;28;19912;-87
2021/08/13 13:53:04;;;;;;;;;;;24.40;82.50;;;;;;5036563;28;20043;-87
2021/08/13 13:55:29;;;;;;;;;;;24.50;83.40;;;;;;5037064;28;19920;-87
2021/08/13 13:57:55;;;;;;;;;;;24.40;84.20;;;;;;5037130;28;20377;-87
2021/08/13 14:00:20;;;;;;;;;;;24.30;84.80;;;;;;5036965;28;20008;-87
2021/08/13 14:02:46;;;;;;;;;;;24.30;85.20;;;;;;5036711;28;19944;-87
2021/08/13 14:05:12;;;;;;;;;;;24.30;84.60;;;;;;5036833;28;19913;-87
2021/08/13 14:07:38;;;;;;;;;;;24.30;83.40;;;;;;5036299;28;19916;-87
2021/08/13 14:10:06;;;;;;;;;;;24.20;82.80;;;;;;5054169;28;19908;-87
2021/08/13 14:12:35;;;;;;;;;;;24.10;81.20;;;;;;5036172;28;20270;-87
2021/08/13 14:15:02;;;;;;;;;;;24.00;81.00;;;;;;5036551;28;20141;-88